TES weather

Tesalia Airport
Tesalia, Huila Department, Colombia

Public forecast

Using degrees Celsius for public forecast. Weather courtesy of forecast.io.

METAR (pilot weather report)

Closest report is Benito Salas Airport, 31.1 nm (57.6 km) NNE. Retrieved 2019/08/25 15:00 UTC (10 minutes ago):

SKNV 251500Z 18013KT 140V200 9999 NSC 31/15 A3000

TAF (pilot weather forecast)

Closest forecast is Alfonso Bonilla Aragon International Airport, 85.9 nm (159.1 km) NW. Retrieved 2019/08/25 12:40 UTC (3 hours ago):

TAF SKCL 251030Z 2512/2612 05004KT 9999 FEW023 BKN120 BECMG 2519/2521 32012KT BECMG 2601/2603 03005KT TX33/2519Z TN18/2611Z